首页
METAR-TAF:

METAR-TAF

机场 :

赫尔辛基-万塔机场

赫尔辛基, 芬兰

纬度: 60-19N, 经度: 024-58E, 海拔: 51米

当前天气观测

该预报发布于37分钟前的10:20 UTC
风速9节,风向南转南东
温度 19°C
湿度 30%
气压 1028 hPa
能见度10公里或以上
1500米以下无云,无积雨云

METAR: EFHK 241020Z 15009KT CAVOK 19/01 Q1028 NOSIG

时间: 13:57 (10:57 UTC)

预报

该预报发布于2小时和35分钟前的08:22 UTC
预报有效从24日的 09点(UTC)到 25日的 09点(UTC)
风速9节,风向南转南东
能见度10公里或以上
1500米以下无云,无积雨云

TAF: EFHK 240822Z 2409/2509 15009KT CAVOK

超过4000个机场的气象观测和天气预报(METAR&TAF报告)。

可查询的气象台以黄色和红色小点在地图上表示。

将鼠标移到小点上方,可查看气象台名称。

然后点击查看天气观测和预报。

如需切换地图:点击带黑十字的绿色按钮放大地图;点击带横线的绿色按钮缩小地图;或者点击绿色箭头查看邻近地区的地图。


METAR-TAF: